createdAt,value
2023-10-28T00:00:33.165Z,7.97
2023-10-28T00:05:34.949Z,6.13
2023-10-28T00:10:37.860Z,9.33
2023-10-28T00:15:40.249Z,9.50
2023-10-28T00:20:42.526Z,7.53
2023-10-28T00:25:44.447Z,5.60
2023-10-28T00:30:46.266Z,12.87
2023-10-28T00:35:49.010Z,9.87
2023-10-28T00:40:51.349Z,7.20
2023-10-28T00:45:55.305Z,5.60
2023-10-28T00:50:59.124Z,6.70
2023-10-28T00:56:02.789Z,3.57
2023-10-28T01:01:05.189Z,6.27
2023-10-28T01:06:10.516Z,7.47
2023-10-28T01:11:14.106Z,5.60
2023-10-28T01:16:15.898Z,4.63
2023-10-28T01:21:18.235Z,4.27
2023-10-28T01:26:20.244Z,6.77
2023-10-28T01:31:23.059Z,4.53
2023-10-28T01:36:24.931Z,6.40
2023-10-28T01:41:28.034Z,6.20
2023-10-28T01:46:30.690Z,6.83
2023-10-28T01:51:32.613Z,6.80
2023-10-28T01:56:34.387Z,4.93
2023-10-28T02:01:36.772Z,6.60
2023-10-28T02:06:39.215Z,8.90
2023-10-28T02:11:41.070Z,4.57
2023-10-28T02:16:42.924Z,10.27
2023-10-28T02:21:45.311Z,9.43
2023-10-28T02:26:47.235Z,10.73
2023-10-28T02:31:49.979Z,9.93
2023-10-28T02:36:51.996Z,4.13
2023-10-28T02:41:56.813Z,8.77
2023-10-28T02:46:59.577Z,9.45
2023-10-28T02:52:02.356Z,8.87
2023-10-28T02:57:04.559Z,9.63
2023-10-28T03:02:06.449Z,11.13
2023-10-28T03:07:09.024Z,10.17
2023-10-28T03:12:15.995Z,10.53
2023-10-28T03:17:18.815Z,7.10
2023-10-28T03:22:20.743Z,8.90
2023-10-28T03:27:22.711Z,8.03
2023-10-28T03:32:24.543Z,10.47
2023-10-28T03:37:26.710Z,6.53
2023-10-28T03:42:28.571Z,12.93
2023-10-28T03:47:30.564Z,5.73
2023-10-28T03:52:33.960Z,13.60
2023-10-28T03:57:36.164Z,9.50
2023-10-28T04:02:38.268Z,7.33
2023-10-28T04:07:40.047Z,6.07
2023-10-28T04:12:41.884Z,9.00
2023-10-28T04:17:43.656Z,5.47
2023-10-28T04:22:45.536Z,6.03
2023-10-28T04:27:47.422Z,6.13
2023-10-28T04:32:49.460Z,6.33
2023-10-28T04:37:51.256Z,9.75
2023-10-28T04:42:53.485Z,12.43
2023-10-28T04:47:55.467Z,9.43
2023-10-28T04:52:57.387Z,7.77
2023-10-28T04:57:59.164Z,12.63
2023-10-28T05:03:02.019Z,9.93
2023-10-28T05:08:04.086Z,10.20
2023-10-28T05:13:05.924Z,12.90
2023-10-28T05:18:07.707Z,7.27
2023-10-28T05:23:09.591Z,14.02
2023-10-28T05:28:11.765Z,17.40
2023-10-28T05:33:15.061Z,9.43
2023-10-28T05:38:16.943Z,13.33
2023-10-28T05:43:19.562Z,6.27
2023-10-28T05:48:21.341Z,13.85
2023-10-28T05:53:23.884Z,9.63
2023-10-28T05:58:25.662Z,12.13
2023-10-28T06:03:30.122Z,14.80
2023-10-28T06:08:32.039Z,12.53
2023-10-28T06:13:33.862Z,10.03
2023-10-28T06:18:35.644Z,14.63
2023-10-28T06:23:37.400Z,8.77
2023-10-28T06:28:39.885Z,13.53
2023-10-28T06:33:41.958Z,9.20
2023-10-28T06:38:43.723Z,11.35
2023-10-28T06:43:45.534Z,12.17
2023-10-28T06:48:47.727Z,8.27
2023-10-28T06:53:49.663Z,9.40
2023-10-28T06:58:52.524Z,8.57
2023-10-28T07:03:54.504Z,10.38
2023-10-28T07:08:56.538Z,6.47
2023-10-28T07:13:58.786Z,13.70
2023-10-28T07:19:01.048Z,13.83
2023-10-28T07:24:03.007Z,7.95
2023-10-28T07:29:07.489Z,9.95
2023-10-28T07:34:09.423Z,10.33
2023-10-28T07:39:11.339Z,8.35
2023-10-28T07:44:13.148Z,10.70
2023-10-28T07:49:15.219Z,6.43
2023-10-28T07:54:17.004Z,10.43
2023-10-28T07:59:18.937Z,9.43
2023-10-28T08:04:21.024Z,6.28
2023-10-28T08:09:23.889Z,3.97
2023-10-28T08:14:27.082Z,6.88
2023-10-28T08:19:30.534Z,7.95
2023-10-28T08:24:32.353Z,8.30
2023-10-28T08:29:35.025Z,5.25
2023-10-28T08:34:37.247Z,5.28
2023-10-28T08:39:38.978Z,8.93
2023-10-28T08:44:41.973Z,6.05
2023-10-28T08:49:48.224Z,6.70
2023-10-28T08:54:52.494Z,7.00
2023-10-28T08:59:54.432Z,4.85
2023-10-28T09:04:56.627Z,5.45
2023-10-28T09:09:59.795Z,7.53
2023-10-28T09:15:01.940Z,7.07
2023-10-28T09:20:10.592Z,6.78
2023-10-28T09:25:15.722Z,10.25
2023-10-28T09:30:19.190Z,8.82
2023-10-28T09:35:22.091Z,8.48
2023-10-28T09:40:24.736Z,8.65
2023-10-28T09:45:26.700Z,9.27
2023-10-28T09:50:31.561Z,15.95
2023-10-28T09:55:36.988Z,9.43
2023-10-28T10:00:39.117Z,9.20
2023-10-28T10:05:44.475Z,7.85
2023-10-28T10:10:47.031Z,14.73
2023-10-28T10:15:55.845Z,9.40
2023-10-28T10:21:13.601Z,11.23
2023-10-28T10:26:30.715Z,10.55
2023-10-28T10:31:34.566Z,13.18
2023-10-28T10:36:46.990Z,13.88
2023-10-28T10:41:54.199Z,14.02
2023-10-28T10:46:59.501Z,10.25
2023-10-28T10:52:02.542Z,10.05
2023-10-28T10:57:04.729Z,12.82
2023-10-28T11:02:07.874Z,15.25
2023-10-28T11:07:10.994Z,13.88
2023-10-28T11:12:12.815Z,12.68
2023-10-28T11:17:14.848Z,11.27
2023-10-28T11:22:17.392Z,13.23
2023-10-28T11:27:21.078Z,14.35
2023-10-28T11:32:22.911Z,13.43
2023-10-28T11:37:24.873Z,12.18
2023-10-28T11:42:28.561Z,10.60
2023-10-28T11:47:31.228Z,9.20
2023-10-28T11:52:33.143Z,12.68
2023-10-28T11:57:35.033Z,9.63
2023-10-28T12:02:36.875Z,10.43
2023-10-28T12:07:38.779Z,13.75
2023-10-28T12:12:40.576Z,14.07
2023-10-28T12:17:44.026Z,11.65
2023-10-28T12:22:46.341Z,8.88
2023-10-28T12:27:48.098Z,11.40
2023-10-28T12:32:51.830Z,8.40
2023-10-28T12:37:53.691Z,11.60
2023-10-28T12:42:55.580Z,10.25
2023-10-28T12:47:57.865Z,8.18
2023-10-28T12:52:59.907Z,20.33
2023-10-28T12:58:02.168Z,10.85
2023-10-28T13:03:05.337Z,8.55
2023-10-28T13:08:07.347Z,12.43
2023-10-28T13:13:09.138Z,9.73
2023-10-28T13:18:12.588Z,9.65
2023-10-28T13:23:14.592Z,11.13
2023-10-28T13:28:16.360Z,12.32
2023-10-28T13:33:18.249Z,14.07
2023-10-28T13:38:20.261Z,11.23
2023-10-28T13:43:22.074Z,9.57
2023-10-28T13:48:24.022Z,8.82
2023-10-28T13:53:26.087Z,6.82
2023-10-28T13:58:29.816Z,8.85
2023-10-28T14:03:31.815Z,9.48
2023-10-28T14:08:33.906Z,10.48
2023-10-28T14:13:41.906Z,9.95
2023-10-28T14:18:50.325Z,8.00
2023-10-28T14:23:52.818Z,6.43
2023-10-28T14:28:54.604Z,10.23
2023-10-28T14:33:58.763Z,8.00
2023-10-28T14:39:00.856Z,8.40
2023-10-28T14:44:03.514Z,6.80
2023-10-28T14:49:05.532Z,8.57
2023-10-28T14:54:07.380Z,12.27
2023-10-28T14:59:10.048Z,6.65
2023-10-28T15:04:12.121Z,8.52
2023-10-28T15:09:14.028Z,4.20
2023-10-28T15:14:15.886Z,3.70
2023-10-28T15:19:17.720Z,5.35
2023-10-28T15:24:19.642Z,9.02
2023-10-28T15:29:21.440Z,5.10
2023-10-28T15:34:23.413Z,5.00
2023-10-28T15:39:25.250Z,5.20
2023-10-28T15:44:27.058Z,2.55
2023-10-28T15:49:29.108Z,4.88
2023-10-28T15:54:31.626Z,7.05
2023-10-28T15:59:33.461Z,4.75
2023-10-28T16:04:35.349Z,6.43
2023-10-28T16:09:40.102Z,10.07
2023-10-28T16:14:41.967Z,4.32
2023-10-28T16:19:43.872Z,3.20
2023-10-28T16:24:45.914Z,3.15
2023-10-28T16:29:47.896Z,6.68
2023-10-28T16:34:49.710Z,5.40
2023-10-28T16:39:53.221Z,1.83
2023-10-28T16:44:56.199Z,4.90
2023-10-28T16:49:57.972Z,2.72
2023-10-28T16:54:59.724Z,3.78
2023-10-28T17:00:01.831Z,3.92
2023-10-28T17:05:05.876Z,3.95
2023-10-28T17:10:08.744Z,4.32
2023-10-28T17:15:10.761Z,2.78
2023-10-28T17:20:12.643Z,3.20
2023-10-28T17:25:15.813Z,3.88
2023-10-28T17:30:17.577Z,2.28
2023-10-28T17:35:19.996Z,1.65
2023-10-28T17:40:23.225Z,2.28
2023-10-28T17:45:25.661Z,3.58
2023-10-28T17:50:27.469Z,2.47
2023-10-28T17:55:29.806Z,3.13
2023-10-28T18:00:32.415Z,2.70
2023-10-28T18:05:34.417Z,1.67
2023-10-28T18:10:36.332Z,3.88
2023-10-28T18:15:39.907Z,2.47
2023-10-28T18:20:43.946Z,3.80
2023-10-28T18:25:46.145Z,3.92
2023-10-28T18:30:48.098Z,3.35
2023-10-28T18:35:49.913Z,3.28
2023-10-28T18:40:51.698Z,2.35
2023-10-28T18:45:54.375Z,3.38
2023-10-28T18:50:56.181Z,3.47
2023-10-28T18:56:03.705Z,2.65
2023-10-28T19:01:07.096Z,2.33
2023-10-28T19:06:09.901Z,2.05
2023-10-28T19:11:11.766Z,3.38
2023-10-28T19:16:13.561Z,3.35
2023-10-28T19:21:15.401Z,2.60
2023-10-28T19:26:17.378Z,2.00
2023-10-28T19:31:19.355Z,2.13
2023-10-28T19:36:21.146Z,1.70
2023-10-28T19:41:26.561Z,2.83
2023-10-28T19:46:29.212Z,1.25
2023-10-28T19:51:31.033Z,3.95
2023-10-28T19:56:32.823Z,3.03
2023-10-28T20:01:34.650Z,4.82
2023-10-28T20:06:36.560Z,4.45
2023-10-28T20:11:38.336Z,3.08
2023-10-28T20:16:40.244Z,4.35
2023-10-28T20:21:42.009Z,3.15
2023-10-28T20:26:44.487Z,5.47
2023-10-28T20:31:46.312Z,4.35
2023-10-28T20:36:48.093Z,2.13
2023-10-28T20:41:49.947Z,5.32
2023-10-28T20:46:51.800Z,2.42
2023-10-28T20:51:54.010Z,4.43
2023-10-28T20:56:57.122Z,4.40
2023-10-28T21:01:58.939Z,2.95
2023-10-28T21:07:01.945Z,5.20
2023-10-28T21:12:04.177Z,4.32
2023-10-28T21:17:09.178Z,3.35
2023-10-28T21:22:10.929Z,3.72
2023-10-28T21:27:12.678Z,2.45
2023-10-28T21:32:14.532Z,2.63
2023-10-28T21:37:16.407Z,2.65
2023-10-28T21:42:19.633Z,3.05
2023-10-28T21:47:21.523Z,5.20
2023-10-28T21:52:23.349Z,3.38
2023-10-28T21:57:26.483Z,4.50
2023-10-28T22:02:30.272Z,4.53
2023-10-28T22:07:32.446Z,2.75
2023-10-28T22:12:34.209Z,2.55
2023-10-28T22:17:36.160Z,3.35
2023-10-28T22:22:38.686Z,2.90
2023-10-28T22:27:40.662Z,3.45
2023-10-28T22:32:42.550Z,1.65
2023-10-28T22:37:44.417Z,6.63
2023-10-28T22:42:47.006Z,8.32
2023-10-28T22:47:48.880Z,2.58
2023-10-28T22:52:50.716Z,4.90
2023-10-28T22:57:53.053Z,5.63
2023-10-28T23:02:55.178Z,1.85
2023-10-28T23:07:58.375Z,2.50
2023-10-28T23:13:00.567Z,3.03
2023-10-28T23:18:02.617Z,2.45
2023-10-28T23:23:04.474Z,3.95
2023-10-28T23:28:06.385Z,4.38
2023-10-28T23:33:08.480Z,4.85
2023-10-28T23:38:10.355Z,1.35
2023-10-28T23:43:12.116Z,2.10
2023-10-28T23:48:14.764Z,4.05
2023-10-28T23:53:16.863Z,4.90
2023-10-28T23:58:18.681Z,1.55
